sensor_id;sensor_type;location;lat;lon;timestamp;pressure;altitude;pressure_sealevel;temperature;humidity
33697;BME280;20031;43.416;23.232;2023-01-26T00:01:20;101007.47;;;1.61;80.54
33697;BME280;20031;43.416;23.232;2023-01-26T00:03:46;100998.13;;;1.60;80.79
33697;BME280;20031;43.416;23.232;2023-01-26T00:06:14;100989.69;;;1.58;80.47
33697;BME280;20031;43.416;23.232;2023-01-26T00:08:45;100988.09;;;1.55;80.62
33697;BME280;20031;43.416;23.232;2023-01-26T00:11:14;100987.28;;;1.55;80.68
33697;BME280;20031;43.416;23.232;2023-01-26T00:13:40;100994.06;;;1.56;81.07
33697;BME280;20031;43.416;23.232;2023-01-26T00:16:10;101000.84;;;1.57;81.07
33697;BME280;20031;43.416;23.232;2023-01-26T00:18:37;101002.50;;;1.58;81.21
33697;BME280;20031;43.416;23.232;2023-01-26T00:21:03;101005.72;;;1.61;81.17
33697;BME280;20031;43.416;23.232;2023-01-26T00:23:30;100993.75;;;1.62;80.81
33697;BME280;20031;43.416;23.232;2023-01-26T00:25:56;100981.56;;;1.65;80.83
33697;BME280;20031;43.416;23.232;2023-01-26T00:28:21;100992.44;;;1.70;80.96
33697;BME280;20031;43.416;23.232;2023-01-26T00:30:47;100985.31;;;1.75;80.72
33697;BME280;20031;43.416;23.232;2023-01-26T00:33:13;100986.81;;;1.79;81.09
33697;BME280;20031;43.416;23.232;2023-01-26T00:35:39;101000.38;;;1.81;80.95
33697;BME280;20031;43.416;23.232;2023-01-26T00:38:10;100995.41;;;1.78;80.86
33697;BME280;20031;43.416;23.232;2023-01-26T00:40:36;100986.34;;;1.73;80.74
33697;BME280;20031;43.416;23.232;2023-01-26T00:43:02;100976.97;;;1.72;81.08
33697;BME280;20031;43.416;23.232;2023-01-26T00:45:27;100976.19;;;1.70;80.90
33697;BME280;20031;43.416;23.232;2023-01-26T00:47:53;100970.31;;;1.68;80.38
33697;BME280;20031;43.416;23.232;2023-01-26T00:50:18;100972.97;;;1.66;80.68
33697;BME280;20031;43.416;23.232;2023-01-26T00:52:43;100971.06;;;1.70;81.19
33697;BME280;20031;43.416;23.232;2023-01-26T00:55:09;100964.22;;;1.70;81.12
33697;BME280;20031;43.416;23.232;2023-01-26T00:57:34;100969.19;;;1.73;80.83
33697;BME280;20031;43.416;23.232;2023-01-26T01:00:00;100973.41;;;1.74;81.09
33697;BME280;20031;43.416;23.232;2023-01-26T01:02:25;100966.44;;;1.76;81.00
33697;BME280;20031;43.416;23.232;2023-01-26T01:04:51;100953.44;;;1.79;81.38
33697;BME280;20031;43.416;23.232;2023-01-26T01:07:16;100950.78;;;1.81;81.31
33697;BME280;20031;43.416;23.232;2023-01-26T01:09:44;100955.09;;;1.80;81.14
33697;BME280;20031;43.416;23.232;2023-01-26T01:12:09;100947.41;;;1.80;80.78
33697;BME280;20031;43.416;23.232;2023-01-26T01:14:35;100949.22;;;1.78;81.29
33697;BME280;20031;43.416;23.232;2023-01-26T01:17:00;100948.56;;;1.75;80.93
33697;BME280;20031;43.416;23.232;2023-01-26T01:19:25;100942.53;;;1.76;80.96
33697;BME280;20031;43.416;23.232;2023-01-26T01:21:51;100940.78;;;1.76;80.58
33697;BME280;20031;43.416;23.232;2023-01-26T01:24:17;100944.25;;;1.75;80.96
33697;BME280;20031;43.416;23.232;2023-01-26T01:26:42;100941.69;;;1.75;80.60
33697;BME280;20031;43.416;23.232;2023-01-26T01:29:11;100940.78;;;1.76;80.97
33697;BME280;20031;43.416;23.232;2023-01-26T01:31:37;100932.25;;;1.76;80.66
33697;BME280;20031;43.416;23.232;2023-01-26T01:34:02;100930.75;;;1.72;80.60
33697;BME280;20031;43.416;23.232;2023-01-26T01:36:28;100928.28;;;1.70;80.57
33697;BME280;20031;43.416;23.232;2023-01-26T01:38:55;100923.06;;;1.72;80.96
33697;BME280;20031;43.416;23.232;2023-01-26T01:41:21;100923.06;;;1.72;80.89
33697;BME280;20031;43.416;23.232;2023-01-26T01:43:48;100919.00;;;1.68;80.33
33697;BME280;20031;43.416;23.232;2023-01-26T01:46:19;100912.59;;;1.59;80.64
33697;BME280;20031;43.416;23.232;2023-01-26T01:48:54;100910.38;;;1.53;80.46
33697;BME280;20031;43.416;23.232;2023-01-26T01:51:32;100920.72;;;1.52;80.93
33697;BME280;20031;43.416;23.232;2023-01-26T01:54:03;100926.66;;;1.52;81.54
33697;BME280;20031;43.416;23.232;2023-01-26T01:56:33;100916.31;;;1.54;81.06
33697;BME280;20031;43.416;23.232;2023-01-26T01:59:00;100922.22;;;1.56;81.51
33697;BME280;20031;43.416;23.232;2023-01-26T02:01:27;100915.44;;;1.55;80.96
33697;BME280;20031;43.416;23.232;2023-01-26T02:03:57;100904.34;;;1.54;81.11
33697;BME280;20031;43.416;23.232;2023-01-26T02:06:32;100897.38;;;1.56;81.34
33697;BME280;20031;43.416;23.232;2023-01-26T02:08:59;100899.22;;;1.54;81.80
33697;BME280;20031;43.416;23.232;2023-01-26T02:11:39;100895.16;;;1.51;81.11
33697;BME280;20031;43.416;23.232;2023-01-26T02:14:08;100897.72;;;1.51;81.78
33697;BME280;20031;43.416;23.232;2023-01-26T02:16:35;100893.41;;;1.51;81.84
33697;BME280;20031;43.416;23.232;2023-01-26T02:19:05;100885.03;;;1.48;81.56
33697;BME280;20031;43.416;23.232;2023-01-26T02:21:33;100886.59;;;1.50;82.39
33697;BME280;20031;43.416;23.232;2023-01-26T02:26:56;100881.56;;;1.49;82.04
33697;BME280;20031;43.416;23.232;2023-01-26T02:29:22;100882.47;;;1.48;82.51
33697;BME280;20031;43.416;23.232;2023-01-26T02:31:47;100879.06;;;1.47;82.10
33697;BME280;20031;43.416;23.232;2023-01-26T02:34:13;100874.88;;;1.46;82.12
33697;BME280;20031;43.416;23.232;2023-01-26T02:36:38;100871.38;;;1.47;82.01
33697;BME280;20031;43.416;23.232;2023-01-26T02:39:26;100853.50;;;1.46;82.34
33697;BME280;20031;43.416;23.232;2023-01-26T02:41:58;100863.03;;;1.44;82.16
33697;BME280;20031;43.416;23.232;2023-01-26T02:44:43;100861.28;;;1.44;82.76
33697;BME280;20031;43.416;23.232;2023-01-26T02:47:13;100850.19;;;1.44;82.28
33697;BME280;20031;43.416;23.232;2023-01-26T02:49:39;100852.00;;;1.42;82.52
33697;BME280;20031;43.416;23.232;2023-01-26T02:52:22;100854.72;;;1.39;82.25
33697;BME280;20031;43.416;23.232;2023-01-26T02:54:50;100848.06;;;1.36;82.31
33697;BME280;20031;43.416;23.232;2023-01-26T02:57:34;100838.44;;;1.40;82.73
33697;BME280;20031;43.416;23.232;2023-01-26T03:00:01;100836.84;;;1.37;82.46
33697;BME280;20031;43.416;23.232;2023-01-26T03:02:26;100841.81;;;1.40;82.32
33697;BME280;20031;43.416;23.232;2023-01-26T03:04:52;100835.88;;;1.40;82.83
33697;BME280;20031;43.416;23.232;2023-01-26T03:07:17;100826.34;;;1.42;82.25
33697;BME280;20031;43.416;23.232;2023-01-26T03:09:43;100829.00;;;1.40;82.74
33697;BME280;20031;43.416;23.232;2023-01-26T03:12:08;100834.97;;;1.41;81.98
33697;BME280;20031;43.416;23.232;2023-01-26T03:14:34;100830.00;;;1.38;82.01
33697;BME280;20031;43.416;23.232;2023-01-26T03:16:59;100831.81;;;1.36;82.06
33697;BME280;20031;43.416;23.232;2023-01-26T03:19:25;100817.44;;;1.33;81.90
33697;BME280;20031;43.416;23.232;2023-01-26T03:22:10;100812.13;;;1.36;82.15
33697;BME280;20031;43.416;23.232;2023-01-26T03:24:54;100813.75;;;1.37;81.49
33697;BME280;20031;43.416;23.232;2023-01-26T03:27:46;100809.47;;;1.38;81.72
33697;BME280;20031;43.416;23.232;2023-01-26T03:30:15;100801.03;;;1.36;81.52
33697;BME280;20031;43.416;23.232;2023-01-26T03:32:41;100796.81;;;1.35;81.43
33697;BME280;20031;43.416;23.232;2023-01-26T03:35:07;100796.91;;;1.33;81.49
33697;BME280;20031;43.416;23.232;2023-01-26T03:37:39;100805.41;;;1.34;81.25
33697;BME280;20031;43.416;23.232;2023-01-26T03:40:08;100797.72;;;1.34;81.71
33697;BME280;20031;43.416;23.232;2023-01-26T03:42:53;100789.13;;;1.35;81.35
33697;BME280;20031;43.416;23.232;2023-01-26T03:45:37;100785.63;;;1.36;81.54
33697;BME280;20031;43.416;23.232;2023-01-26T03:48:21;100785.63;;;1.36;81.21
33697;BME280;20031;43.416;23.232;2023-01-26T03:51:04;100793.31;;;1.36;81.23
33697;BME280;20031;43.416;23.232;2023-01-26T03:53:48;100790.50;;;1.40;81.35
33697;BME280;20031;43.416;23.232;2023-01-26T03:56:32;100775.13;;;1.40;81.69
33697;BME280;20031;43.416;23.232;2023-01-26T03:59:02;100779.25;;;1.43;81.79
33697;BME280;20031;43.416;23.232;2023-01-26T04:01:36;100779.25;;;1.43;81.59
33697;BME280;20031;43.416;23.232;2023-01-26T04:04:02;100775.88;;;1.42;81.34
33697;BME280;20031;43.416;23.232;2023-01-26T04:06:47;100771.66;;;1.41;81.56
33697;BME280;20031;43.416;23.232;2023-01-26T04:09:31;100777.59;;;1.42;81.42
33697;BME280;20031;43.416;23.232;2023-01-26T04:11:57;100774.88;;;1.45;81.45
33697;BME280;20031;43.416;23.232;2023-01-26T04:14:23;100775.63;;;1.47;81.39
33697;BME280;20031;43.416;23.232;2023-01-26T04:17:07;100772.16;;;1.48;81.90
33697;BME280;20031;43.416;23.232;2023-01-26T04:19:52;100773.06;;;1.47;81.53
33697;BME280;20031;43.416;23.232;2023-01-26T04:22:37;100762.78;;;1.47;81.34
33697;BME280;20031;43.416;23.232;2023-01-26T04:25:14;100760.22;;;1.47;81.77
33697;BME280;20031;43.416;23.232;2023-01-26T04:27:41;100756.00;;;1.46;81.51
33697;BME280;20031;43.416;23.232;2023-01-26T04:30:10;100744.09;;;1.45;81.38
33697;BME280;20031;43.416;23.232;2023-01-26T04:32:36;100743.25;;;1.44;81.70
33697;BME280;20031;43.416;23.232;2023-01-26T04:35:02;100738.22;;;1.43;81.34
33697;BME280;20031;43.416;23.232;2023-01-26T04:37:28;100732.53;;;1.38;81.47
33697;BME280;20031;43.416;23.232;2023-01-26T04:39:54;100735.09;;;1.38;81.37
33697;BME280;20031;43.416;23.232;2023-01-26T04:42:19;100744.41;;;1.39;81.68
33697;BME280;20031;43.416;23.232;2023-01-26T04:44:44;100735.09;;;1.38;81.14
33697;BME280;20031;43.416;23.232;2023-01-26T04:47:10;100737.66;;;1.38;81.79
33697;BME280;20031;43.416;23.232;2023-01-26T04:49:35;100736.81;;;1.37;81.45
33697;BME280;20031;43.416;23.232;2023-01-26T04:52:01;100739.47;;;1.36;81.14
33697;BME280;20031;43.416;23.232;2023-01-26T04:54:26;100737.81;;;1.35;81.12
33697;BME280;20031;43.416;23.232;2023-01-26T04:56:52;100738.72;;;1.34;81.69
33697;BME280;20031;43.416;23.232;2023-01-26T04:59:17;100736.00;;;1.37;81.70
33697;BME280;20031;43.416;23.232;2023-01-26T05:01:43;100742.63;;;1.41;81.47
33697;BME280;20031;43.416;23.232;2023-01-26T05:04:10;100730.34;;;1.46;81.90
33697;BME280;20031;43.416;23.232;2023-01-26T05:06:37;100732.66;;;1.50;81.50
33697;BME280;20031;43.416;23.232;2023-01-26T05:09:03;100730.75;;;1.53;81.46
33697;BME280;20031;43.416;23.232;2023-01-26T05:11:29;100728.19;;;1.53;81.25
33697;BME280;20031;43.416;23.232;2023-01-26T05:13:54;100728.19;;;1.53;81.70
33697;BME280;20031;43.416;23.232;2023-01-26T05:16:19;100724.72;;;1.54;81.19
33697;BME280;20031;43.416;23.232;2023-01-26T05:18:45;100723.06;;;1.53;81.56
33697;BME280;20031;43.416;23.232;2023-01-26T05:21:11;100726.34;;;1.55;82.07
33697;BME280;20031;43.416;23.232;2023-01-26T05:23:36;100723.69;;;1.57;81.94
33697;BME280;20031;43.416;23.232;2023-01-26T05:26:03;100716.84;;;1.57;82.21
33697;BME280;20031;43.416;23.232;2023-01-26T05:28:29;100719.41;;;1.57;82.18
33697;BME280;20031;43.416;23.232;2023-01-26T05:30:54;100718.25;;;1.63;82.06
33697;BME280;20031;43.416;23.232;2023-01-26T05:33:19;100720.81;;;1.63;82.07
33697;BME280;20031;43.416;23.232;2023-01-26T05:35:50;100715.91;;;1.58;82.15
33697;BME280;20031;43.416;23.232;2023-01-26T05:38:16;100724.09;;;1.65;82.16
33697;BME280;20031;43.416;23.232;2023-01-26T05:40:42;100717.22;;;1.65;81.95
33697;BME280;20031;43.416;23.232;2023-01-26T05:43:08;100714.75;;;1.64;82.21
33697;BME280;20031;43.416;23.232;2023-01-26T05:45:34;100713.94;;;1.63;82.01
33697;BME280;20031;43.416;23.232;2023-01-26T05:48:00;100713.03;;;1.64;81.60
33697;BME280;20031;43.416;23.232;2023-01-26T05:50:25;100711.34;;;1.63;82.00
33697;BME280;20031;43.416;23.232;2023-01-26T05:52:51;100720.88;;;1.61;81.76
33697;BME280;20031;43.416;23.232;2023-01-26T05:55:16;100723.53;;;1.60;81.41
33697;BME280;20031;43.416;23.232;2023-01-26T05:57:42;100715.91;;;1.58;82.06
33697;BME280;20031;43.416;23.232;2023-01-26T06:00:08;100715.72;;;1.61;81.99
33697;BME280;20031;43.416;23.232;2023-01-26T06:02:34;100707.13;;;1.62;81.50
33697;BME280;20031;43.416;23.232;2023-01-26T06:05:00;100714.56;;;1.67;81.42
33697;BME280;20031;43.416;23.232;2023-01-26T06:07:25;100711.91;;;1.68;81.64
33697;BME280;20031;43.416;23.232;2023-01-26T06:09:51;100706.94;;;1.65;81.58
33697;BME280;20031;43.416;23.232;2023-01-26T06:12:19;100704.97;;;1.70;82.01
33697;BME280;20031;43.416;23.232;2023-01-26T06:14:45;100709.16;;;1.71;81.90
33697;BME280;20031;43.416;23.232;2023-01-26T06:17:11;100704.78;;;1.73;81.44
33697;BME280;20031;43.416;23.232;2023-01-26T06:19:37;100705.59;;;1.74;81.48
33697;BME280;20031;43.416;23.232;2023-01-26T06:22:07;100704.97;;;1.70;81.66
33697;BME280;20031;43.416;23.232;2023-01-26T06:24:33;100706.13;;;1.65;81.17
33697;BME280;20031;43.416;23.232;2023-01-26T06:26:59;100698.53;;;1.63;81.69
33697;BME280;20031;43.416;23.232;2023-01-26T06:29:24;100693.31;;;1.65;81.90
33697;BME280;20031;43.416;23.232;2023-01-26T06:31:49;100688.16;;;1.65;81.92
33697;BME280;20031;43.416;23.232;2023-01-26T06:34:15;100694.03;;;1.67;81.88
33697;BME280;20031;43.416;23.232;2023-01-26T06:36:40;100698.16;;;1.69;81.95
33697;BME280;20031;43.416;23.232;2023-01-26T06:39:07;100692.03;;;1.72;81.81
33697;BME280;20031;43.416;23.232;2023-01-26T06:41:34;100687.53;;;1.75;82.21
33697;BME280;20031;43.416;23.232;2023-01-26T06:44:00;100695.81;;;1.80;81.74
33697;BME280;20031;43.416;23.232;2023-01-26T06:46:25;100683.53;;;1.85;81.87
33697;BME280;20031;43.416;23.232;2023-01-26T06:48:50;100686.84;;;1.87;82.02
33697;BME280;20031;43.416;23.232;2023-01-26T06:53:55;100681.06;;;1.84;81.96
33697;BME280;20031;43.416;23.232;2023-01-26T06:56:22;100683.91;;;1.79;81.47
33697;BME280;20031;43.416;23.232;2023-01-26T06:58:47;100681.59;;;1.75;81.86
33697;BME280;20031;43.416;23.232;2023-01-26T07:01:20;100674.34;;;1.67;81.85
33697;BME280;20031;43.416;23.232;2023-01-26T07:03:47;100671.03;;;1.65;82.00
33697;BME280;20031;43.416;23.232;2023-01-26T07:06:13;100677.19;;;1.63;82.18
33697;BME280;20031;43.416;23.232;2023-01-26T07:08:39;100679.81;;;1.61;82.13
33697;BME280;20031;43.416;23.232;2023-01-26T07:11:05;100676.50;;;1.59;82.54
33697;BME280;20031;43.416;23.232;2023-01-26T07:13:30;100674.66;;;1.61;82.63
33697;BME280;20031;43.416;23.232;2023-01-26T07:16:00;100671.38;;;1.59;82.84
33697;BME280;20031;43.416;23.232;2023-01-26T07:18:26;100677.59;;;1.55;82.78
33697;BME280;20031;43.416;23.232;2023-01-26T07:20:52;100676.09;;;1.51;82.73
33697;BME280;20031;43.416;23.232;2023-01-26T07:23:17;100670.25;;;1.50;83.27
33697;BME280;20031;43.416;23.232;2023-01-26T07:25:43;100678.03;;;1.48;83.72
33697;BME280;20031;43.416;23.232;2023-01-26T07:28:08;100673.72;;;1.49;83.81
33697;BME280;20031;43.416;23.232;2023-01-26T07:30:35;100666.69;;;1.52;83.80
33697;BME280;20031;43.416;23.232;2023-01-26T07:33:01;100669.25;;;1.52;83.96
33697;BME280;20031;43.416;23.232;2023-01-26T07:35:26;100661.66;;;1.51;84.49
33697;BME280;20031;43.416;23.232;2023-01-26T07:37:54;100658.81;;;1.55;84.31
33697;BME280;20031;43.416;23.232;2023-01-26T07:40:19;100666.34;;;1.58;84.96
33697;BME280;20031;43.416;23.232;2023-01-26T07:42:45;100658.47;;;1.61;84.65
33697;BME280;20031;43.416;23.232;2023-01-26T07:45:11;100659.13;;;1.64;85.34
33697;BME280;20031;43.416;23.232;2023-01-26T07:47:36;100662.41;;;1.66;84.94
33697;BME280;20031;43.416;23.232;2023-01-26T07:50:02;100662.50;;;1.65;85.05
33697;BME280;20031;43.416;23.232;2023-01-26T07:52:28;100654.72;;;1.66;85.39
33697;BME280;20031;43.416;23.232;2023-01-26T07:54:53;100654.34;;;1.72;85.56
33697;BME280;20031;43.416;23.232;2023-01-26T07:57:18;100655.84;;;1.76;85.08
33697;BME280;20031;43.416;23.232;2023-01-26T07:59:44;100651.59;;;1.75;84.79
33697;BME280;20031;43.416;23.232;2023-01-26T08:02:09;100644.66;;;1.77;84.77
33697;BME280;20031;43.416;23.232;2023-01-26T08:04:35;100652.09;;;1.82;85.63
33697;BME280;20031;43.416;23.232;2023-01-26T08:07:00;100650.06;;;1.87;85.39
33697;BME280;20031;43.416;23.232;2023-01-26T08:09:25;100648.53;;;1.84;85.18
33697;BME280;20031;43.416;23.232;2023-01-26T08:11:51;100644.22;;;1.85;85.20
33697;BME280;20031;43.416;23.232;2023-01-26T08:14:16;100640.66;;;1.87;85.03
33697;BME280;20031;43.416;23.232;2023-01-26T08:16:42;100642.47;;;1.85;85.37
33697;BME280;20031;43.416;23.232;2023-01-26T08:19:09;100637.31;;;1.85;84.94
33697;BME280;20031;43.416;23.232;2023-01-26T08:21:34;100633.22;;;1.83;84.88
33697;BME280;20031;43.416;23.232;2023-01-26T08:24:00;100632.28;;;1.84;84.93
33697;BME280;20031;43.416;23.232;2023-01-26T08:26:27;100628.63;;;1.88;85.08
33697;BME280;20031;43.416;23.232;2023-01-26T08:28:53;100624.13;;;1.91;84.81
33697;BME280;20031;43.416;23.232;2023-01-26T08:31:19;100635.88;;;1.95;85.50
33697;BME280;20031;43.416;23.232;2023-01-26T08:33:49;100633.97;;;1.99;85.37
33697;BME280;20031;43.416;23.232;2023-01-26T08:36:15;100635.59;;;2.00;85.16
33697;BME280;20031;43.416;23.232;2023-01-26T08:38:41;100637.72;;;2.07;85.75
33697;BME280;20031;43.416;23.232;2023-01-26T08:41:07;100634.88;;;2.11;85.18
33697;BME280;20031;43.416;23.232;2023-01-26T08:43:33;100628.75;;;2.14;85.18
33697;BME280;20031;43.416;23.232;2023-01-26T08:45:59;100622.66;;;2.15;84.96
33697;BME280;20031;43.416;23.232;2023-01-26T08:48:25;100621.03;;;2.14;85.00
33697;BME280;20031;43.416;23.232;2023-01-26T08:50:55;100614.78;;;2.18;85.20
33697;BME280;20031;43.416;23.232;2023-01-26T08:53:21;100619.91;;;2.18;84.99
33697;BME280;20031;43.416;23.232;2023-01-26T08:55:47;100615.72;;;2.17;85.35
33697;BME280;20031;43.416;23.232;2023-01-26T08:58:13;100617.16;;;2.21;85.63
33697;BME280;20031;43.416;23.232;2023-01-26T09:00:38;100613.47;;;2.25;85.14
33697;BME280;20031;43.416;23.232;2023-01-26T09:03:04;100618.63;;;2.25;85.46
33697;BME280;20031;43.416;23.232;2023-01-26T09:05:32;100610.19;;;2.23;84.98
33697;BME280;20031;43.416;23.232;2023-01-26T09:07:58;100616.06;;;2.25;85.09
33697;BME280;20031;43.416;23.232;2023-01-26T09:10:24;100602.50;;;2.23;85.14
33697;BME280;20031;43.416;23.232;2023-01-26T09:12:50;100602.31;;;2.26;85.39
33697;BME280;20031;43.416;23.232;2023-01-26T09:15:15;100599.00;;;2.24;85.28
33697;BME280;20031;43.416;23.232;2023-01-26T09:17:41;100596.25;;;2.27;85.06
33697;BME280;20031;43.416;23.232;2023-01-26T09:20:09;100586.88;;;2.26;84.75
33697;BME280;20031;43.416;23.232;2023-01-26T09:22:34;100588.09;;;2.20;84.85
33697;BME280;20031;43.416;23.232;2023-01-26T09:25:00;100590.56;;;2.22;84.95
33697;BME280;20031;43.416;23.232;2023-01-26T09:27:25;100589.84;;;2.20;85.04
33697;BME280;20031;43.416;23.232;2023-01-26T09:29:51;100586.41;;;2.19;85.12
33697;BME280;20031;43.416;23.232;2023-01-26T09:32:17;100584.88;;;2.17;84.94
33697;BME280;20031;43.416;23.232;2023-01-26T09:34:43;100582.31;;;2.17;85.33
33697;BME280;20031;43.416;23.232;2023-01-26T09:37:08;100576.34;;;2.16;84.79
33697;BME280;20031;43.416;23.232;2023-01-26T09:39:34;100573.03;;;2.14;85.22
33697;BME280;20031;43.416;23.232;2023-01-26T09:44:51;100566.06;;;2.16;85.04
33697;BME280;20031;43.416;23.232;2023-01-26T09:49:51;100551.00;;;2.24;85.33
33697;BME280;20031;43.416;23.232;2023-01-26T09:54:49;100549.16;;;2.26;85.59
33697;BME280;20031;43.416;23.232;2023-01-26T09:57:22;100538.97;;;2.25;85.55
33697;BME280;20031;43.416;23.232;2023-01-26T10:02:41;100527.41;;;2.32;85.89
33697;BME280;20031;43.416;23.232;2023-01-26T10:05:19;100520.06;;;2.40;85.35
33697;BME280;20031;43.416;23.232;2023-01-26T10:07:47;100512.16;;;2.43;85.04
33697;BME280;20031;43.416;23.232;2023-01-26T10:10:19;100518.31;;;2.40;85.45
33697;BME280;20031;43.416;23.232;2023-01-26T10:12:47;100518.69;;;2.34;85.30
33697;BME280;20031;43.416;23.232;2023-01-26T10:17:45;100520.19;;;2.24;85.36
33697;BME280;20031;43.416;23.232;2023-01-26T10:25:17;100488.69;;;2.08;85.37
33697;BME280;20031;43.416;23.232;2023-01-26T10:27:44;100496.81;;;2.15;86.02
33697;BME280;20031;43.416;23.232;2023-01-26T10:30:16;100494.03;;;2.18;86.11
33697;BME280;20031;43.416;23.232;2023-01-26T10:32:44;100492.13;;;2.21;85.49
33697;BME280;20031;43.416;23.232;2023-01-26T10:35:16;100488.81;;;2.19;85.32
33697;BME280;20031;43.416;23.232;2023-01-26T10:37:42;100484.81;;;2.15;85.31
33697;BME280;20031;43.416;23.232;2023-01-26T10:40:08;100487.13;;;2.06;85.59
33697;BME280;20031;43.416;23.232;2023-01-26T10:42:35;100491.69;;;2.01;86.02
33697;BME280;20031;43.416;23.232;2023-01-26T10:45:06;100496.31;;;1.96;86.10
33697;BME280;20031;43.416;23.232;2023-01-26T10:48:11;100493.84;;;1.95;86.40
33697;BME280;20031;43.416;23.232;2023-01-26T10:50:38;100485.94;;;1.98;86.50
33697;BME280;20031;43.416;23.232;2023-01-26T10:53:04;100478.94;;;2.00;86.25
33697;BME280;20031;43.416;23.232;2023-01-26T10:55:32;100468.59;;;2.01;86.04
33697;BME280;20031;43.416;23.232;2023-01-26T10:57:58;100466.66;;;2.04;86.54
33697;BME280;20031;43.416;23.232;2023-01-26T11:00:32;100454.84;;;2.02;86.39
33697;BME280;20031;43.416;23.232;2023-01-26T11:03:15;100446.13;;;2.04;86.75
33697;BME280;20031;43.416;23.232;2023-01-26T11:05:41;100440.88;;;2.06;86.74
33697;BME280;20031;43.416;23.232;2023-01-26T11:08:34;100434.44;;;2.13;86.79
33697;BME280;20031;43.416;23.232;2023-01-26T11:11:01;100422.53;;;2.12;86.81
33697;BME280;20031;43.416;23.232;2023-01-26T11:13:28;100418.28;;;2.11;86.41
33697;BME280;20031;43.416;23.232;2023-01-26T11:16:19;100407.09;;;2.12;86.86
33697;BME280;20031;43.416;23.232;2023-01-26T11:18:59;100402.06;;;2.10;86.63
33697;BME280;20031;43.416;23.232;2023-01-26T11:24:25;100400.16;;;2.14;87.17
33697;BME280;20031;43.416;23.232;2023-01-26T11:33:05;100393.50;;;2.24;86.88
33697;BME280;20031;43.416;23.232;2023-01-26T11:36:37;100386.72;;;2.23;86.77
33697;BME280;20031;43.416;23.232;2023-01-26T11:41:22;100379.72;;;2.25;86.85
33697;BME280;20031;43.416;23.232;2023-01-26T11:44:35;100378.25;;;2.21;86.97
33697;BME280;20031;43.416;23.232;2023-01-26T11:55:24;100366.25;;;2.21;86.55
33697;BME280;20031;43.416;23.232;2023-01-26T11:58:06;100373.03;;;2.22;87.12
33697;BME280;20031;43.416;23.232;2023-01-26T12:00:43;100366.78;;;2.26;87.02
33697;BME280;20031;43.416;23.232;2023-01-26T12:03:37;100354.22;;;2.22;86.47
33697;BME280;20031;43.416;23.232;2023-01-26T12:06:10;100340.88;;;2.17;86.32
33697;BME280;20031;43.416;23.232;2023-01-26T12:08:41;100336.84;;;2.13;87.03
33697;BME280;20031;43.416;23.232;2023-01-26T12:11:12;100329.16;;;2.13;87.07
33697;BME280;20031;43.416;23.232;2023-01-26T12:19:35;100337.81;;;2.24;86.95
33697;BME280;20031;43.416;23.232;2023-01-26T12:22:13;100326.72;;;2.24;86.58
33697;BME280;20031;43.416;23.232;2023-01-26T12:24:44;100324.16;;;2.24;86.39
33697;BME280;20031;43.416;23.232;2023-01-26T12:27:27;100322.69;;;2.20;86.40
33697;BME280;20031;43.416;23.232;2023-01-26T12:30:34;100318.56;;;2.17;86.32
33697;BME280;20031;43.416;23.232;2023-01-26T12:33:02;100321.16;;;2.17;86.50
33697;BME280;20031;43.416;23.232;2023-01-26T12:36:23;100313.13;;;2.22;86.84
33697;BME280;20031;43.416;23.232;2023-01-26T12:41:37;100304.31;;;2.26;86.67
33697;BME280;20031;43.416;23.232;2023-01-26T12:46:50;100296.28;;;2.30;86.63
33697;BME280;20031;43.416;23.232;2023-01-26T12:49:30;100297.22;;;2.29;86.69
33697;BME280;20031;43.416;23.232;2023-01-26T12:52:04;100290.56;;;2.27;86.61
33697;BME280;20031;43.416;23.232;2023-01-26T12:54:44;100280.06;;;2.30;86.56
33697;BME280;20031;43.416;23.232;2023-01-26T12:57:17;100269.78;;;2.30;86.50
33697;BME280;20031;43.416;23.232;2023-01-26T12:59:44;100267.22;;;2.30;86.59
33697;BME280;20031;43.416;23.232;2023-01-26T13:02:30;100267.00;;;2.33;86.63
33697;BME280;20031;43.416;23.232;2023-01-26T13:04:59;100264.66;;;2.30;86.85
33697;BME280;20031;43.416;23.232;2023-01-26T13:10:19;100281.41;;;2.23;86.91
33697;BME280;20031;43.416;23.232;2023-01-26T13:12:58;100283.84;;;2.24;87.06
33697;BME280;20031;43.416;23.232;2023-01-26T13:15:30;100282.31;;;2.22;87.06
33697;BME280;20031;43.416;23.232;2023-01-26T13:18:02;100276.56;;;2.18;86.99
33697;BME280;20031;43.416;23.232;2023-01-26T13:20:41;100274.91;;;2.17;86.38
33697;BME280;20031;43.416;23.232;2023-01-26T13:23:42;100266.50;;;2.15;86.52
33697;BME280;20031;43.416;23.232;2023-01-26T13:31:47;100255.34;;;2.02;86.74
33697;BME280;20031;43.416;23.232;2023-01-26T13:34:14;100251.16;;;2.02;86.15
33697;BME280;20031;43.416;23.232;2023-01-26T13:36:42;100252.09;;;2.01;86.63
33697;BME280;20031;43.416;23.232;2023-01-26T13:39:34;100250.63;;;1.97;86.66
33697;BME280;20031;43.416;23.232;2023-01-26T13:42:24;100251.28;;;2.00;86.74
33697;BME280;20031;43.416;23.232;2023-01-26T13:45:16;100244.28;;;2.02;86.86
33697;BME280;20031;43.416;23.232;2023-01-26T13:47:52;100241.91;;;1.99;86.15
33697;BME280;20031;43.416;23.232;2023-01-26T13:50:30;100242.00;;;1.98;86.16
33697;BME280;20031;43.416;23.232;2023-01-26T13:52:56;100247.25;;;1.96;86.79
33697;BME280;20031;43.416;23.232;2023-01-26T13:55:30;100244.69;;;1.96;86.37
33697;BME280;20031;43.416;23.232;2023-01-26T13:58:21;100239.44;;;1.98;86.38
33697;BME280;20031;43.416;23.232;2023-01-26T14:01:06;100244.38;;;2.01;86.80
33697;BME280;20031;43.416;23.232;2023-01-26T14:03:42;100244.47;;;1.99;86.75
33697;BME280;20031;43.416;23.232;2023-01-26T14:06:10;100246.13;;;2.00;86.40
33697;BME280;20031;43.416;23.232;2023-01-26T14:08:54;100241.00;;;2.00;86.56